Item Display Status Humidity-temperature Sensor

Elevation Above Sea Level: 3 m

 

Deployed Sensor

  • Serial Number: 20351189
  • NDBC Property Number: 43281
  • Start Date: 6/4/2020 (13:39:40 Z)
  • End Date: 8/21/2022 (10:36:00 Z)
Relative Humidity [%]     6 entries per hour
Showing data from 8/21/2022 (10:30:00 Z) to 8/20/2022 (00:00:01 Z)
Previous Next [ Day | 3-Days | 7-Days ]
First Last
Prev [ Day | 3-Days | 7-Days ] Next
First Last

Start Time:     :
End Time:     :     
Time (in GMT) :00 :50 :40 :30 :20 :10
Previous Next [ Day | 3-Days | 7-Days ]
First Last
Prev [ Day | 3-Days | 7-Days ] Next
First Last


123 => good data
MM => data is determined as missing
-- => data not received/configured
Back to Top Back to Top
8/21/2022 11:00 to 10:10 -- -- -- 71.14 71.86 70.00
8/21/2022 10:00 to 9:10 69.85 69.77 70.02 69.63 68.80 69.98
8/21/2022 09:00 to 8:10 69.77 69.07 68.96 68.53 68.05 68.49
8/21/2022 08:00 to 7:10 67.16 67.33 66.87 67.93 67.56 67.99
8/21/2022 07:00 to 6:10 68.32 68.28 68.24 68.32 68.47 68.03
8/21/2022 06:00 to 5:10 67.47 67.18 68.53 68.90 68.70 68.96
8/21/2022 05:00 to 4:10 69.05 69.07 68.84 69.48 69.96 69.13
8/21/2022 04:00 to 3:10 69.36 70.06 69.81 68.74 69.21 70.04
8/21/2022 03:00 to 2:10 69.07 69.05 68.74 69.11 69.17 68.32
8/21/2022 02:00 to 1:10 68.18 69.13 68.82 69.17 69.05 71.74
8/21/2022 01:00 to 0:10 -- -- -- -- -- --
8/21/2022 00:00 to 23:10 71.47 71.12 71.34 72.03 71.16 71.03
8/20/2022 23:00 to 22:10 70.35 69.21 70.10 70.33 70.54 70.66
8/20/2022 22:00 to 21:10 71.51 71.47 71.03 72.15 71.28 71.57
8/20/2022 21:00 to 20:10 71.59 71.59 71.59 72.58 72.75 72.00
8/20/2022 20:00 to 19:10 71.09 70.99 72.05 71.94 72.79 73.54
8/20/2022 19:00 to 18:10 73.60 73.66 74.03 72.91 72.34 72.79
8/20/2022 18:00 to 17:10 71.98 72.69 73.18 72.56 72.07 72.50
8/20/2022 17:00 to 16:10 73.39 73.33 73.33 74.09 73.68 73.70
8/20/2022 16:00 to 15:10 73.80 74.18 72.79 72.44 72.48 71.90
8/20/2022 15:00 to 14:10 71.84 72.11 71.61 72.09 72.03 71.96
8/20/2022 14:00 to 13:10 71.63 71.47 72.07 72.17 71.45 70.66
8/20/2022 13:00 to 12:10 71.84 71.84 72.87 71.98 71.55 71.38
8/20/2022 12:00 to 11:10 72.19 73.31 73.66 73.29 72.54 74.07
8/20/2022 11:00 to 10:10 74.01 72.81 71.74 71.76 72.58 72.09
8/20/2022 10:00 to 9:10 71.86 71.34 71.92 71.01 71.47 69.94
8/20/2022 09:00 to 8:10 70.52 71.12 71.63 72.75 72.15 72.17
8/20/2022 08:00 to 7:10 72.98 72.58 72.54 72.54 72.23 70.64
8/20/2022 07:00 to 6:10 67.95 70.12 70.83 70.93 70.06 70.23
8/20/2022 06:00 to 5:10 69.73 70.87 71.12 71.94 72.27 72.54
8/20/2022 05:00 to 4:10 72.40 72.83 71.96 72.11 72.09 72.19
8/20/2022 04:00 to 3:10 72.67 72.25 71.98 73.58 71.22 71.67
8/20/2022 03:00 to 2:10 72.38 74.32 75.56 76.18 74.24 73.31
8/20/2022 02:00 to 1:10 74.78 72.85 74.22 73.20 72.69 72.60
8/20/2022 01:00 to 0:10 72.89 73.39 73.41 73.87 74.63 74.22

 

 

 

Air Temperature [°C]     6 entries per hour
Showing data from 8/21/2022 (10:30:00 Z) to 8/20/2022 (00:00:01 Z)
Previous Next [ Day | 3-Days | 7-Days ]
First Last
Prev [ Day | 3-Days | 7-Days ] Next
First Last

Start Time:     :
End Time:     :     
Time (in GMT) :00 :50 :40 :30 :20 :10
Previous Next [ Day | 3-Days | 7-Days ]
First Last
Prev [ Day | 3-Days | 7-Days ] Next
First Last


123 => good data
MM => data is determined as missing
-- => data not received/configured
Back to Top Back to Top
8/21/2022 11:00 to 10:10 -- -- -- 28.53 28.61 28.37
8/21/2022 10:00 to 9:10 28.36 28.40 28.51 28.44 28.44 28.51
8/21/2022 09:00 to 8:10 28.52 28.47 28.54 28.47 28.41 28.49
8/21/2022 08:00 to 7:10 28.51 28.49 28.41 28.50 28.44 28.53
8/21/2022 07:00 to 6:10 28.53 28.73 28.65 28.70 28.95 29.26
8/21/2022 06:00 to 5:10 29.07 29.10 28.72 28.78 28.76 28.70
8/21/2022 05:00 to 4:10 28.55 28.50 28.59 28.56 28.56 28.49
8/21/2022 04:00 to 3:10 28.39 28.58 28.51 28.76 28.60 28.33
8/21/2022 03:00 to 2:10 28.47 28.56 28.63 28.28 28.55 28.38
8/21/2022 02:00 to 1:10 28.52 28.14 28.11 28.14 28.03 28.37
8/21/2022 01:00 to 0:10 -- -- -- -- -- --
8/21/2022 00:00 to 23:10 27.89 28.07 27.77 27.93 27.84 27.95
8/20/2022 23:00 to 22:10 28.13 28.21 28.03 28.01 28.15 27.90
8/20/2022 22:00 to 21:10 28.00 27.75 27.97 28.06 28.19 28.04
8/20/2022 21:00 to 20:10 28.48 28.09 28.22 28.15 27.94 28.26
8/20/2022 20:00 to 19:10 28.15 28.15 27.96 27.94 27.84 27.39
8/20/2022 19:00 to 18:10 27.31 27.27 27.35 27.30 27.34 27.38
8/20/2022 18:00 to 17:10 27.33 27.30 27.39 27.34 27.30 27.32
8/20/2022 17:00 to 16:10 27.42 27.44 27.32 27.36 27.36 27.46
8/20/2022 16:00 to 15:10 27.41 27.52 27.41 27.43 27.56 27.48
8/20/2022 15:00 to 14:10 27.48 27.54 27.52 27.56 27.54 27.54
8/20/2022 14:00 to 13:10 27.60 27.59 27.69 27.77 27.78 27.67
8/20/2022 13:00 to 12:10 27.78 27.75 27.85 27.85 27.82 27.82
8/20/2022 12:00 to 11:10 27.80 27.94 27.95 27.91 27.93 27.88
8/20/2022 11:00 to 10:10 28.10 28.19 27.98 27.95 28.04 27.99
8/20/2022 10:00 to 9:10 28.07 28.02 28.12 28.03 28.06 28.17
8/20/2022 09:00 to 8:10 27.99 28.16 27.98 27.95 27.95 27.91
8/20/2022 08:00 to 7:10 27.99 28.01 28.00 27.92 28.16 28.13
8/20/2022 07:00 to 6:10 28.32 28.22 28.16 28.29 28.60 28.42
8/20/2022 06:00 to 5:10 28.40 28.16 28.24 28.28 28.17 28.08
8/20/2022 05:00 to 4:10 28.29 28.31 28.08 28.15 28.23 28.06
8/20/2022 04:00 to 3:10 28.28 28.24 28.19 28.09 28.21 27.99
8/20/2022 03:00 to 2:10 27.98 28.07 27.90 28.09 28.15 27.93
8/20/2022 02:00 to 1:10 28.02 27.97 28.03 28.16 28.30 28.31
8/20/2022 01:00 to 0:10 28.09 28.25 28.08 28.07 28.19 28.17